createdAt,value
2022-09-10T00:01:18.527Z,98932.59
2022-09-10T00:03:45.741Z,98927.47
2022-09-10T00:06:12.953Z,98931.63
2022-09-10T00:08:40.456Z,98932.09
2022-09-10T00:11:10.156Z,98931.41
2022-09-10T00:13:39.828Z,98925.06
2022-09-10T00:16:13.443Z,98925.31
2022-09-10T00:18:40.954Z,98919.25
2022-09-10T00:21:12.263Z,98923.66
2022-09-10T00:23:40.040Z,98918.28
2022-09-10T00:26:15.361Z,98916.84
2022-09-10T00:28:43.552Z,98914.41
2022-09-10T00:31:11.421Z,98912.44
2022-09-10T00:33:38.590Z,98917.53
2022-09-10T00:36:15.257Z,98919.72
2022-09-10T00:38:42.515Z,98911.72
2022-09-10T00:41:09.694Z,98908.31
2022-09-10T00:43:50.426Z,98899.03
2022-09-10T00:46:24.656Z,98905.13
2022-09-10T00:48:52.901Z,98901.50
2022-09-10T00:51:21.277Z,98901.28
2022-09-10T00:53:49.875Z,98897.34
2022-09-10T00:56:17.285Z,98892.69
2022-09-10T00:58:46.498Z,98890.97
2022-09-10T01:01:13.922Z,98887.56
2022-09-10T01:03:42.741Z,98875.56
2022-09-10T01:06:10.969Z,98871.94
2022-09-10T01:08:38.207Z,98874.13
2022-09-10T01:11:23.610Z,98866.81
2022-09-10T01:14:10.295Z,98858.28
2022-09-10T01:16:46.405Z,98857.03
2022-09-10T01:19:35.180Z,98852.63
2022-09-10T01:22:32.868Z,98853.13
2022-09-10T01:25:12.444Z,98842.16
2022-09-10T01:27:47.972Z,98843.81
2022-09-10T01:30:18.906Z,98845.78
2022-09-10T01:33:11.343Z,98840.69
2022-09-10T01:35:44.936Z,98840.00
2022-09-10T01:38:23.885Z,98839.53
2022-09-10T01:40:53.236Z,98837.63
2022-09-10T01:43:20.408Z,98834.69
2022-09-10T01:46:21.875Z,98842.31
2022-09-10T01:49:29.111Z,98836.47
2022-09-10T01:52:46.907Z,98831.34
2022-09-10T01:55:22.819Z,98819.44
2022-09-10T01:58:12.429Z,98820.47
2022-09-10T02:00:46.059Z,98821.66
2022-09-10T02:03:16.596Z,98808.25
2022-09-10T02:05:45.953Z,98811.13
2022-09-10T02:08:20.637Z,98805.31
2022-09-10T02:10:58.994Z,98800.19
2022-09-10T02:13:28.269Z,98791.88
2022-09-10T02:15:56.918Z,98795.50
2022-09-10T02:18:25.839Z,98798.41
2022-09-10T02:20:58.435Z,98794.72
2022-09-10T02:23:32.533Z,98792.50
2022-09-10T02:25:59.684Z,98792.00
2022-09-10T02:28:27.117Z,98792.50
2022-09-10T02:30:55.509Z,98797.63
2022-09-10T02:33:22.616Z,98800.31
2022-09-10T02:35:50.250Z,98801.78
2022-09-10T02:38:18.551Z,98797.88
2022-09-10T02:40:49.650Z,98789.31
2022-09-10T02:43:17.834Z,98795.41
2022-09-10T02:45:45.295Z,98796.63
2022-09-10T02:48:12.963Z,98786.41
2022-09-10T02:50:40.330Z,98776.38
2022-09-10T02:53:07.375Z,98770.50
2022-09-10T02:55:34.612Z,98779.75
2022-09-10T02:58:02.054Z,98771.69
2022-09-10T03:00:29.301Z,98769.50
2022-09-10T03:03:00.846Z,98770.72
2022-09-10T03:05:29.553Z,98772.44
2022-09-10T03:07:57.561Z,98768.31
2022-09-10T03:10:27.192Z,98773.19
2022-09-10T03:12:54.682Z,98771.50
2022-09-10T03:15:23.287Z,98772.75
2022-09-10T03:17:51.276Z,98772.00
2022-09-10T03:20:18.613Z,98766.41
2022-09-10T03:22:46.595Z,98768.38
2022-09-10T03:25:13.685Z,98760.81
2022-09-10T03:27:40.808Z,98774.22
2022-09-10T03:30:08.702Z,98767.63
2022-09-10T03:32:35.754Z,98762.78
2022-09-10T03:35:02.879Z,98769.34
2022-09-10T03:37:31.637Z,98764.72
2022-09-10T03:39:59.176Z,98763.50
2022-09-10T03:42:26.373Z,98750.50
2022-09-10T03:44:53.386Z,98749.50
2022-09-10T03:47:20.445Z,98750.22
2022-09-10T03:49:47.567Z,98750.75
2022-09-10T03:52:14.604Z,98743.44
2022-09-10T03:54:41.726Z,98749.50
2022-09-10T03:57:08.940Z,98747.06
2022-09-10T03:59:35.957Z,98749.22
2022-09-10T04:02:03.453Z,98742.66
2022-09-10T04:04:32.235Z,98743.59
2022-09-10T04:06:59.341Z,98746.50
2022-09-10T04:09:26.385Z,98748.97
2022-09-10T04:11:53.508Z,98753.59
2022-09-10T04:14:20.546Z,98750.41
2022-09-10T04:16:47.606Z,98753.84
2022-09-10T04:19:14.766Z,98747.72
2022-09-10T04:21:41.890Z,98747.72
2022-09-10T04:24:14.872Z,98755.78
2022-09-10T04:26:42.198Z,98760.41
2022-09-10T04:29:09.218Z,98755.34
2022-09-10T04:31:36.364Z,98756.34
2022-09-10T04:34:03.509Z,98750.97
2022-09-10T04:36:30.603Z,98749.75
2022-09-10T04:38:58.592Z,98734.84
2022-09-10T04:41:25.674Z,98744.13
2022-09-10T04:43:52.726Z,98742.44
2022-09-10T04:46:19.867Z,98743.19
2022-09-10T04:48:47.414Z,98739.47
2022-09-10T04:51:16.775Z,98744.59
2022-09-10T04:53:46.238Z,98743.59
2022-09-10T04:56:13.724Z,98751.16
2022-09-10T04:58:41.676Z,98745.03
2022-09-10T05:01:09.181Z,98749.41
2022-09-10T05:03:36.539Z,98753.31
2022-09-10T05:06:05.313Z,98751.16
2022-09-10T05:08:32.720Z,98758.69
2022-09-10T05:11:01.517Z,98756.25
2022-09-10T05:13:31.387Z,98763.84
2022-09-10T05:16:01.942Z,98769.72
2022-09-10T05:18:29.022Z,98762.91
2022-09-10T05:20:56.163Z,98766.81
2022-09-10T05:23:23.356Z,98768.78
2022-09-10T05:25:50.390Z,98770.72
2022-09-10T05:28:17.754Z,98766.09
2022-09-10T05:30:51.239Z,98762.16
2022-09-10T05:33:18.742Z,98762.91
2022-09-10T05:35:48.452Z,98761.16
2022-09-10T05:38:15.508Z,98769.22
2022-09-10T05:40:43.171Z,98771.16
2022-09-10T05:43:12.305Z,98766.53
2022-09-10T05:45:39.385Z,98769.22
2022-09-10T05:48:06.730Z,98774.38
2022-09-10T05:50:33.808Z,98766.88
2022-09-10T05:53:01.477Z,98777.16
2022-09-10T05:55:30.815Z,98783.53
2022-09-10T05:57:58.786Z,98779.16
2022-09-10T06:00:25.895Z,98780.19
2022-09-10T06:02:53.646Z,98791.34
2022-09-10T06:05:23.526Z,98789.91
2022-09-10T06:07:51.171Z,98796.72
2022-09-10T06:10:18.890Z,98790.44
2022-09-10T06:12:51.456Z,98796.09
2022-09-10T06:15:20.000Z,98794.88
2022-09-10T06:17:47.161Z,98800.03
2022-09-10T06:20:14.337Z,98804.69
2022-09-10T06:22:41.577Z,98807.31
2022-09-10T06:25:09.216Z,98810.97
2022-09-10T06:27:36.253Z,98811.91
2022-09-10T06:30:03.418Z,98824.84
2022-09-10T06:32:32.504Z,98812.16
2022-09-10T06:34:59.579Z,98824.34
2022-09-10T06:37:27.321Z,98812.16
2022-09-10T06:39:54.456Z,98818.97
2022-09-10T06:42:21.536Z,98821.88
2022-09-10T06:44:48.778Z,98824.81
2022-09-10T06:48:18.832Z,98820.47
2022-09-10T06:50:03.061Z,98812.88
2022-09-10T06:52:30.116Z,98809.22
2022-09-10T06:54:57.128Z,98806.31
2022-09-10T06:57:27.134Z,98808.53
2022-09-10T06:59:54.282Z,98807.31
2022-09-10T07:02:21.388Z,98799.28
2022-09-10T07:04:48.540Z,98796.59
2022-09-10T07:07:15.944Z,98804.88
2022-09-10T07:09:43.560Z,98802.19
2022-09-10T07:12:10.564Z,98803.84
2022-09-10T07:14:37.964Z,98795.81
2022-09-10T07:17:05.028Z,98797.72
2022-09-10T07:19:33.629Z,98798.66
2022-09-10T07:22:01.642Z,98796.97
2022-09-10T07:24:28.893Z,98794.50
2022-09-10T07:26:57.310Z,98799.84
2022-09-10T07:29:24.484Z,98804.97
2022-09-10T07:31:51.578Z,98802.53
2022-09-10T07:34:18.632Z,98802.47
2022-09-10T07:36:45.775Z,98799.50
2022-09-10T07:39:12.871Z,98812.41
2022-09-10T07:41:39.867Z,98804.25
2022-09-10T07:44:07.043Z,98809.09
2022-09-10T07:46:34.236Z,98812.25
2022-09-10T07:49:02.199Z,98817.63
2022-09-10T07:51:32.763Z,98821.97
2022-09-10T07:54:00.289Z,98825.63
2022-09-10T07:56:27.534Z,98826.81
2022-09-10T07:58:57.308Z,98825.81
2022-09-10T08:01:24.589Z,98831.63
2022-09-10T08:03:52.012Z,98833.13
2022-09-10T08:06:20.049Z,98848.22
2022-09-10T08:08:47.098Z,98840.38
2022-09-10T08:11:18.095Z,98850.13
2022-09-10T08:13:50.804Z,98849.84
2022-09-10T08:16:25.632Z,98849.56
2022-09-10T08:18:55.914Z,98846.09
2022-09-10T08:21:23.339Z,98842.63
2022-09-10T08:23:51.972Z,98846.06
2022-09-10T08:26:19.338Z,98847.25
2022-09-10T08:28:47.661Z,98843.97
2022-09-10T08:31:14.824Z,98838.34
2022-09-10T08:33:42.815Z,98844.22
2022-09-10T08:36:12.422Z,98840.22
2022-09-10T08:38:40.331Z,98839.75
2022-09-10T08:41:32.813Z,98839.03
2022-09-10T08:44:31.953Z,98840.47
2022-09-10T08:47:10.967Z,98829.91
2022-09-10T08:50:13.598Z,98836.78
2022-09-10T08:52:56.712Z,98843.38
2022-09-10T08:55:34.669Z,98844.56
2022-09-10T08:58:07.238Z,98844.03
2022-09-10T09:00:39.418Z,98857.91
2022-09-10T09:03:21.974Z,98858.28
2022-09-10T09:05:54.602Z,98858.28
2022-09-10T09:08:28.065Z,98857.09
2022-09-10T09:11:04.441Z,98857.91
2022-09-10T09:13:50.274Z,98864.78
2022-09-10T09:16:44.928Z,98866.81
2022-09-10T09:19:28.813Z,98867.38
2022-09-10T09:21:56.578Z,98874.44
2022-09-10T09:24:42.445Z,98870.28
2022-09-10T09:27:15.093Z,98872.47
2022-09-10T09:29:44.867Z,98875.47
2022-09-10T09:32:16.534Z,98878.53
2022-09-10T09:35:06.364Z,98890.09
2022-09-10T09:37:35.067Z,98874.06
2022-09-10T09:40:20.616Z,98873.66
2022-09-10T09:42:50.729Z,98879.28
2022-09-10T09:45:32.645Z,98884.00
2022-09-10T09:48:00.108Z,98893.44
2022-09-10T09:50:39.169Z,98888.16
2022-09-10T09:53:06.202Z,98885.41
2022-09-10T09:55:42.060Z,98889.75
2022-09-10T09:58:21.440Z,98888.97
2022-09-10T10:00:54.449Z,98886.50
2022-09-10T10:03:30.103Z,98884.56
2022-09-10T10:06:08.411Z,98895.44
2022-09-10T10:08:40.282Z,98903.00
2022-09-10T10:11:08.671Z,98905.34
2022-09-10T10:13:39.419Z,98911.09
2022-09-10T10:16:35.982Z,98913.41
2022-09-10T10:19:04.013Z,98921.94
2022-09-10T10:21:33.766Z,98921.16
2022-09-10T10:24:01.441Z,98923.41
2022-09-10T10:26:36.129Z,98926.53
2022-09-10T10:29:19.347Z,98926.09
2022-09-10T10:31:51.036Z,98922.47
2022-09-10T10:34:45.803Z,98924.03
2022-09-10T10:37:43.325Z,98924.41
2022-09-10T10:40:13.758Z,98931.63
2022-09-10T10:42:54.453Z,98933.00
2022-09-10T10:45:55.136Z,98933.69
2022-09-10T10:48:34.559Z,98928.94
2022-09-10T10:51:40.713Z,98930.25
2022-09-10T10:54:24.081Z,98936.06
2022-09-10T10:57:03.936Z,98931.09
2022-09-10T10:59:36.908Z,98930.91
2022-09-10T11:02:30.068Z,98929.06
2022-09-10T11:05:02.821Z,98925.13
2022-09-10T11:07:33.709Z,98920.38
2022-09-10T11:10:33.278Z,98923.41
2022-09-10T11:13:09.811Z,98927.84
2022-09-10T11:15:59.676Z,98926.06
2022-09-10T11:18:34.710Z,98918.47
2022-09-10T11:21:16.649Z,98916.19
2022-09-10T11:24:09.272Z,98912.69
2022-09-10T11:26:44.936Z,98911.22
2022-09-10T11:29:19.920Z,98908.53
2022-09-10T11:31:54.012Z,98907.09
2022-09-10T11:34:49.633Z,98911.44
2022-09-10T11:38:04.349Z,98910.63
2022-09-10T11:41:00.781Z,98904.91
2022-09-10T11:44:04.976Z,98915.91
2022-09-10T11:47:00.374Z,98914.97
2022-09-10T11:49:55.023Z,98913.63
2022-09-10T11:52:26.018Z,98910.06
2022-09-10T11:54:54.465Z,98903.56
2022-09-10T11:57:30.341Z,98911.00
2022-09-10T12:00:12.102Z,98906.66
2022-09-10T12:02:57.801Z,98911.00
2022-09-10T12:05:30.688Z,98917.00
2022-09-10T12:08:04.253Z,98907.16
2022-09-10T12:11:01.792Z,98886.59
2022-09-10T12:13:28.949Z,98879.03
2022-09-10T12:16:02.777Z,98879.13
2022-09-10T12:18:42.894Z,98891.28
2022-09-10T12:21:34.572Z,98892.03
2022-09-10T12:24:21.529Z,98886.09
2022-09-10T12:26:48.859Z,98884.22
2022-09-10T12:29:45.411Z,98889.41
2022-09-10T12:32:21.443Z,98870.28
2022-09-10T12:35:08.961Z,98869.19
2022-09-10T12:37:36.286Z,98868.41
2022-09-10T12:40:25.539Z,98860.53
2022-09-10T12:42:58.320Z,98855.25
2022-09-10T12:46:03.465Z,98848.88
2022-09-10T12:48:33.157Z,98847.06
2022-09-10T12:51:00.950Z,98847.03
2022-09-10T12:53:31.744Z,98830.56
2022-09-10T12:56:15.843Z,98832.81
2022-09-10T12:59:00.941Z,98834.22
2022-09-10T13:01:40.912Z,98834.38
2022-09-10T13:04:30.415Z,98842.22
2022-09-10T13:07:01.852Z,98840.75
2022-09-10T13:09:39.893Z,98839.13
2022-09-10T13:12:20.189Z,98842.13
2022-09-10T13:14:51.461Z,98840.00
2022-09-10T13:17:51.809Z,98837.28
2022-09-10T13:20:21.629Z,98838.34
2022-09-10T13:23:01.943Z,98835.22
2022-09-10T13:25:37.601Z,98840.75
2022-09-10T13:28:37.314Z,98835.25
2022-09-10T13:31:13.437Z,98834.31
2022-09-10T13:33:52.611Z,98836.38
2022-09-10T13:36:50.383Z,98841.38
2022-09-10T13:39:34.739Z,98844.94
2022-09-10T13:42:07.410Z,98838.38
2022-09-10T13:44:46.693Z,98838.53
2022-09-10T13:47:18.483Z,98840.50
2022-09-10T13:49:51.937Z,98837.28
2022-09-10T13:52:21.768Z,98840.81
2022-09-10T13:55:00.025Z,98829.63
2022-09-10T13:57:27.053Z,98834.78
2022-09-10T14:00:20.282Z,98818.81
2022-09-10T14:02:51.004Z,98816.53
2022-09-10T14:05:26.957Z,98818.16
2022-09-10T14:07:56.509Z,98813.59
2022-09-10T14:10:24.617Z,98801.78
2022-09-10T14:12:53.660Z,98798.16
2022-09-10T14:15:25.129Z,98791.84
2022-09-10T14:17:57.443Z,98784.75
2022-09-10T14:20:27.806Z,98779.16
2022-09-10T14:23:01.120Z,98773.09
2022-09-10T14:25:34.391Z,98772.53
2022-09-10T14:28:16.753Z,98773.47
2022-09-10T14:30:44.947Z,98765.03
2022-09-10T14:33:35.729Z,98768.72
2022-09-10T14:36:23.738Z,98769.09
2022-09-10T14:39:23.204Z,98759.03
2022-09-10T14:42:08.160Z,98761.34
2022-09-10T14:44:44.138Z,98760.75
2022-09-10T14:47:11.186Z,98749.16
2022-09-10T14:49:41.692Z,98753.88
2022-09-10T14:52:12.157Z,98750.72
2022-09-10T14:54:39.442Z,98757.09
2022-09-10T14:57:15.753Z,98762.53
2022-09-10T14:59:46.783Z,98751.09
2022-09-10T15:02:16.472Z,98752.94
2022-09-10T15:04:44.253Z,98747.41
2022-09-10T15:07:12.346Z,98745.41
2022-09-10T15:09:40.313Z,98742.75
2022-09-10T15:12:31.940Z,98730.28
2022-09-10T15:14:59.875Z,98733.72
2022-09-10T15:17:27.442Z,98741.47
2022-09-10T15:19:56.278Z,98750.34
2022-09-10T15:22:26.538Z,98738.22
2022-09-10T15:25:11.335Z,98730.44
2022-09-10T15:27:38.817Z,98727.72
2022-09-10T15:30:06.914Z,98729.34
2022-09-10T15:32:34.056Z,98738.56
2022-09-10T15:35:01.657Z,98725.53
2022-09-10T15:37:28.674Z,98716.50
2022-09-10T15:39:58.339Z,98713.38
2022-09-10T15:42:25.586Z,98715.16
2022-09-10T15:44:52.613Z,98715.63
2022-09-10T15:47:19.751Z,98709.81
2022-09-10T15:49:47.541Z,98703.50
2022-09-10T15:52:14.645Z,98700.78
2022-09-10T15:54:43.538Z,98693.72
2022-09-10T15:57:10.657Z,98694.59
2022-09-10T15:59:37.671Z,98702.00
2022-09-10T16:02:05.551Z,98698.88
2022-09-10T16:04:35.632Z,98704.25
2022-09-10T16:07:03.796Z,98710.34
2022-09-10T16:09:31.163Z,98701.13
2022-09-10T16:11:58.295Z,98706.91
2022-09-10T16:14:25.405Z,98712.34
2022-09-10T16:16:53.995Z,98711.75
2022-09-10T16:19:21.320Z,98721.38
2022-09-10T16:21:48.624Z,98716.19
2022-09-10T16:24:15.688Z,98717.22
2022-09-10T16:26:44.344Z,98710.84
2022-09-10T16:29:22.563Z,98713.09
2022-09-10T16:31:50.543Z,98711.28
2022-09-10T16:34:20.057Z,98717.34
2022-09-10T16:36:51.858Z,98704.09
2022-09-10T16:39:20.332Z,98714.78
2022-09-10T16:41:49.091Z,98702.72
2022-09-10T16:44:18.252Z,98697.69
2022-09-10T16:46:47.404Z,98692.66
2022-09-10T16:49:17.565Z,98700.41
2022-09-10T16:51:46.520Z,98694.00
2022-09-10T16:54:14.499Z,98683.53
2022-09-10T16:56:46.158Z,98684.91
2022-09-10T16:59:22.002Z,98688.22
2022-09-10T17:01:50.451Z,98691.59
2022-09-10T17:04:24.602Z,98691.06
2022-09-10T17:06:53.451Z,98684.84
2022-09-10T17:09:20.665Z,98679.41
2022-09-10T17:11:47.742Z,98680.03
2022-09-10T17:14:14.868Z,98682.50
2022-09-10T17:16:43.759Z,98669.22
2022-09-10T17:19:20.643Z,98673.28
2022-09-10T17:21:51.570Z,98680.19
2022-09-10T17:24:21.263Z,98681.59
2022-09-10T17:26:48.973Z,98686.41
2022-09-10T17:29:19.129Z,98690.06
2022-09-10T17:31:47.407Z,98690.44
2022-09-10T17:34:15.999Z,98695.81
2022-09-10T17:36:46.606Z,98702.59
2022-09-10T17:39:14.785Z,98697.69
2022-09-10T17:41:42.788Z,98705.16
2022-09-10T17:44:11.636Z,98703.41
2022-09-10T17:46:38.977Z,98701.03
2022-09-10T17:49:06.811Z,98696.41
2022-09-10T17:51:35.167Z,98704.88
2022-09-10T17:54:05.291Z,98690.97
2022-09-10T17:56:32.470Z,98699.22
2022-09-10T17:59:04.805Z,98692.09
2022-09-10T18:01:36.514Z,98691.28
2022-09-10T18:04:05.083Z,98694.00
2022-09-10T18:06:35.899Z,98682.59
2022-09-10T18:09:03.976Z,98683.47
2022-09-10T18:11:33.714Z,98677.78
2022-09-10T18:14:01.114Z,98671.00
2022-09-10T18:16:31.513Z,98670.81
2022-09-10T18:19:01.311Z,98668.16
2022-09-10T18:21:31.596Z,98666.50
2022-09-10T18:24:04.521Z,98655.84
2022-09-10T18:26:34.193Z,98669.00
2022-09-10T18:29:07.241Z,98662.03
2022-09-10T18:31:37.497Z,98671.13
2022-09-10T18:34:07.008Z,98674.81
2022-09-10T18:36:35.047Z,98673.31
2022-09-10T18:39:14.054Z,98664.72
2022-09-10T18:41:43.072Z,98668.75
2022-09-10T18:44:17.059Z,98666.25
2022-09-10T18:46:45.948Z,98665.19
2022-09-10T18:49:17.907Z,98661.38
2022-09-10T18:51:48.496Z,98662.88
2022-09-10T18:54:17.298Z,98663.09
2022-09-10T18:56:45.587Z,98670.16
2022-09-10T18:59:20.481Z,98667.78
2022-09-10T19:01:48.774Z,98674.41
2022-09-10T19:04:20.658Z,98670.56
2022-09-10T19:06:49.089Z,98682.56
2022-09-10T19:09:18.872Z,98680.41
2022-09-10T19:11:49.229Z,98677.25
2022-09-10T19:14:19.379Z,98690.06
2022-09-10T19:16:48.014Z,98687.56
2022-09-10T19:19:26.480Z,98677.66
2022-09-10T19:21:59.920Z,98684.34
2022-09-10T19:24:44.103Z,98688.41
2022-09-10T19:27:15.885Z,98683.75
2022-09-10T19:29:43.398Z,98681.69
2022-09-10T19:32:27.025Z,98685.75
2022-09-10T19:34:55.724Z,98683.38
2022-09-10T19:37:22.822Z,98682.81
2022-09-10T19:39:49.990Z,98685.34
2022-09-10T19:42:17.650Z,98693.59
2022-09-10T19:44:44.822Z,98700.03
2022-09-10T19:47:12.464Z,98700.47
2022-09-10T19:49:39.586Z,98703.88
2022-09-10T19:52:06.650Z,98712.28
2022-09-10T19:54:33.829Z,98714.34
2022-09-10T19:57:00.881Z,98715.16
2022-09-10T19:59:28.672Z,98723.75
2022-09-10T20:01:55.984Z,98727.88
2022-09-10T20:04:23.170Z,98741.97
2022-09-10T20:06:50.679Z,98744.50
2022-09-10T20:09:17.935Z,98743.03
2022-09-10T20:11:45.400Z,98741.31
2022-09-10T20:14:13.979Z,98739.31
2022-09-10T20:16:43.474Z,98742.75
2022-09-10T20:19:13.934Z,98741.22
2022-09-10T20:21:42.570Z,98740.19
2022-09-10T20:24:10.292Z,98730.06
2022-09-10T20:26:38.614Z,98733.16
2022-09-10T20:29:09.447Z,98726.34
2022-09-10T20:31:37.575Z,98724.66
2022-09-10T20:34:07.298Z,98726.00
2022-09-10T20:36:36.044Z,98720.69
2022-09-10T20:39:03.510Z,98720.06
2022-09-10T20:41:30.807Z,98718.59
2022-09-10T20:44:00.146Z,98723.78
2022-09-10T20:46:29.939Z,98727.94
2022-09-10T20:49:05.343Z,98718.16
2022-09-10T20:51:37.569Z,98726.56
2022-09-10T20:54:06.454Z,98732.03
2022-09-10T20:56:33.946Z,98734.28
2022-09-10T20:59:02.285Z,98741.13
2022-09-10T21:01:33.780Z,98744.00
2022-09-10T21:04:01.681Z,98743.81
2022-09-10T21:06:31.507Z,98747.53
2022-09-10T21:08:59.400Z,98746.06
2022-09-10T21:11:29.520Z,98746.81
2022-09-10T21:14:02.245Z,98752.94
2022-09-10T21:16:31.692Z,98756.25
2022-09-10T21:19:08.073Z,98751.28
2022-09-10T21:21:36.554Z,98747.78
2022-09-10T21:24:10.538Z,98754.66
2022-09-10T21:26:39.867Z,98755.06
2022-09-10T21:29:11.122Z,98755.47
2022-09-10T21:31:38.996Z,98756.94
2022-09-10T21:34:06.719Z,98773.09
2022-09-10T21:36:37.035Z,98769.16
2022-09-10T21:39:07.776Z,98761.28
2022-09-10T21:41:38.365Z,98773.97
2022-09-10T21:44:09.085Z,98766.59
2022-09-10T21:46:36.533Z,98773.44
2022-09-10T21:49:03.849Z,98779.34
2022-09-10T21:51:31.151Z,98781.81
2022-09-10T21:53:59.753Z,98786.78
2022-09-10T21:56:29.822Z,98779.19
2022-09-10T21:59:00.340Z,98782.41
2022-09-10T22:01:30.411Z,98785.09
2022-09-10T22:04:02.645Z,98778.28
2022-09-10T22:06:32.440Z,98779.81
2022-09-10T22:09:01.858Z,98778.88
2022-09-10T22:11:32.610Z,98772.56
2022-09-10T22:14:02.101Z,98771.59
2022-09-10T22:16:31.540Z,98773.03
2022-09-10T22:19:01.815Z,98775.72
2022-09-10T22:21:29.674Z,98769.13
2022-09-10T22:23:56.840Z,98770.34
2022-09-10T22:26:28.524Z,98770.34
2022-09-10T22:28:57.521Z,98769.63
2022-09-10T22:31:29.602Z,98769.88
2022-09-10T22:33:59.238Z,98761.56
2022-09-10T22:36:31.336Z,98760.63
2022-09-10T22:39:05.513Z,98757.41
2022-09-10T22:41:34.915Z,98752.34
2022-09-10T22:44:03.269Z,98751.19
2022-09-10T22:46:31.255Z,98750.94
2022-09-10T22:48:58.499Z,98744.94
2022-09-10T22:51:31.357Z,98735.88
2022-09-10T22:53:58.677Z,98747.38
2022-09-10T22:56:27.617Z,98736.91
2022-09-10T22:58:56.869Z,98729.88
2022-09-10T23:01:34.904Z,98727.19
2022-09-10T23:04:02.832Z,98723.25
2022-09-10T23:06:32.202Z,98723.25
2022-09-10T23:09:06.365Z,98724.28
2022-09-10T23:11:34.819Z,98721.06
2022-09-10T23:14:05.996Z,98718.59
2022-09-10T23:16:35.912Z,98720.47
2022-09-10T23:19:07.625Z,98711.91
2022-09-10T23:21:36.059Z,98706.72
2022-09-10T23:24:08.385Z,98697.94
2022-09-10T23:26:35.494Z,98698.63
2022-09-10T23:29:06.490Z,98685.19
2022-09-10T23:31:36.411Z,98684.97
2022-09-10T23:34:12.421Z,98673.06
2022-09-10T23:36:42.190Z,98673.06
2022-09-10T23:39:12.983Z,98668.41
2022-09-10T23:41:40.557Z,98672.31
2022-09-10T23:44:08.404Z,98664.50
2022-09-10T23:46:36.566Z,98656.91
2022-09-10T23:49:04.111Z,98661.13
2022-09-10T23:51:32.370Z,98654.38
2022-09-10T23:53:59.796Z,98652.41
2022-09-10T23:56:28.752Z,98648.47
2022-09-10T23:58:57.051Z,98649.53
